Time;durP1;ratioP1;P1;durP2;ratioP2;P2;SDS_P1;SDS_P2;PMS_P1;PMS_P2;Temp;Humidity;BMP_temperature;BMP_pressure;BME280_temperature;BME280_humidity;BME280_pressure;Samples;Min_cycle;Max_cycle;Signal;HPM_P1;HPM_P2
2024/01/24 00:00:12;;;;;;;5.50;1.00;;;14.10;69.60;;;;;;2494414;54;20946;-68
2024/01/24 00:02:39;;;;;;;4.85;0.90;;;14.10;69.50;;;;;;2494313;54;21299;-66
2024/01/24 00:05:06;;;;;;;3.33;1.00;;;14.20;69.80;;;;;;2494252;54;21014;-67
2024/01/24 00:07:33;;;;;;;5.10;1.40;;;14.20;69.80;;;;;;2266820;55;20998;-66
2024/01/24 00:10:00;;;;;;;6.00;1.02;;;14.20;69.80;;;;;;2265457;55;21034;-67
2024/01/24 00:12:26;;;;;;;3.92;1.20;;;14.20;69.70;;;;;;2267036;55;21037;-67
2024/01/24 00:14:55;;;;;;;3.42;0.93;;;14.20;69.80;;;;;;2494012;54;21421;-67
2024/01/24 00:17:22;;;;;;;3.45;0.90;;;14.20;69.70;;;;;;2265292;55;21346;-67
2024/01/24 00:19:49;;;;;;;2.97;0.70;;;14.20;69.40;;;;;;2264122;55;20966;-67
2024/01/24 00:22:16;;;;;;;4.70;1.05;;;14.20;69.60;;;;;;2262883;55;21010;-67
2024/01/24 00:24:42;;;;;;;3.83;0.90;;;14.30;70.10;;;;;;2481473;55;21067;-67
2024/01/24 00:27:09;;;;;;;4.07;0.80;;;14.30;69.90;;;;;;2257748;55;20952;-66
2024/01/24 00:29:35;;;;;;;4.43;1.10;;;14.30;70.10;;;;;;2265054;55;21014;-66
2024/01/24 00:32:03;;;;;;;3.72;0.82;;;14.30;70.00;;;;;;2264622;55;21034;-66
2024/01/24 00:34:30;;;;;;;2.60;0.80;;;14.30;70.10;;;;;;2494346;54;21456;-67
2024/01/24 00:36:56;;;;;;;4.28;0.90;;;14.20;69.70;;;;;;2257429;56;21423;-67
2024/01/24 00:39:23;;;;;;;4.18;0.93;;;14.30;70.00;;;;;;2262482;55;21107;-67
2024/01/24 00:41:49;;;;;;;4.90;0.93;;;14.40;70.10;;;;;;2264879;55;20915;-66
2024/01/24 00:44:15;;;;;;;3.22;0.73;;;14.40;70.20;;;;;;2494274;54;20974;-67
2024/01/24 00:46:42;;;;;;;3.85;1.00;;;14.40;70.50;;;;;;2265153;55;20954;-67
2024/01/24 00:49:09;;;;;;;6.68;1.10;;;14.40;70.10;;;;;;2264423;55;21136;-66
2024/01/24 00:51:36;;;;;;;2.87;0.73;;;14.40;70.10;;;;;;2264453;55;21030;-66
2024/01/24 00:54:03;;;;;;;4.70;0.93;;;14.40;70.30;;;;;;2265004;55;21074;-66
2024/01/24 00:56:29;;;;;;;4.65;1.20;;;14.40;70.40;;;;;;2264618;55;20994;-67
2024/01/24 00:58:55;;;;;;;6.00;1.02;;;14.50;70.50;;;;;;2494182;54;20907;-67
2024/01/24 01:01:22;;;;;;;3.62;1.02;;;14.50;70.40;;;;;;2263856;55;21448;-67
2024/01/24 01:03:48;;;;;;;3.83;0.82;;;14.50;70.50;;;;;;2264522;55;21950;-67
2024/01/24 01:06:15;;;;;;;4.95;0.85;;;14.50;70.50;;;;;;2263471;55;20978;-66
2024/01/24 01:08:44;;;;;;;5.87;0.82;;;14.50;70.50;;;;;;2494307;54;20970;-67
2024/01/24 01:11:11;;;;;;;3.42;0.75;;;14.50;70.30;;;;;;2260932;55;21071;-67
2024/01/24 01:13:38;;;;;;;2.55;0.68;;;14.50;70.50;;;;;;2493087;54;21015;-67
2024/01/24 01:16:05;;;;;;;5.10;0.68;;;14.50;70.60;;;;;;2264700;55;21311;-67
2024/01/24 01:18:31;;;;;;;3.05;0.80;;;14.60;70.70;;;;;;2263723;55;20943;-67
2024/01/24 01:20:58;;;;;;;5.30;0.95;;;14.60;70.30;;;;;;2493527;54;21295;-67
2024/01/24 01:23:25;;;;;;;5.28;1.25;;;14.60;70.60;;;;;;2263995;55;21721;-68
2024/01/24 01:25:52;;;;;;;4.18;0.70;;;14.60;70.10;;;;;;2265248;55;21869;-67
2024/01/24 01:28:19;;;;;;;3.85;0.85;;;14.60;70.30;;;;;;2263169;55;21018;-66
2024/01/24 01:30:45;;;;;;;2.92;0.68;;;14.60;70.50;;;;;;2494848;54;20971;-67
2024/01/24 01:33:12;;;;;;;6.32;1.00;;;14.60;70.40;;;;;;2263996;55;20943;-66
2024/01/24 01:35:38;;;;;;;3.33;0.80;;;14.60;70.60;;;;;;2262931;55;20923;-67
2024/01/24 01:38:04;;;;;;;4.12;0.93;;;14.70;70.90;;;;;;2265294;55;21342;-66
2024/01/24 01:40:31;;;;;;;3.40;0.88;;;14.70;70.60;;;;;;2263845;55;20963;-67
2024/01/24 01:42:59;;;;;;;4.28;1.27;;;14.70;71.00;;;;;;2264297;55;20969;-68
2024/01/24 01:45:28;;;;;;;5.47;1.15;;;14.70;70.90;;;;;;2264235;55;20975;-69
2024/01/24 01:47:54;;;;;;;4.75;1.08;;;14.70;71.30;;;;;;2260232;55;20939;-67
2024/01/24 01:50:20;;;;;;;5.85;0.90;;;14.80;71.10;;;;;;2261172;55;20974;-68
2024/01/24 01:52:47;;;;;;;4.18;1.15;;;14.80;70.60;;;;;;2494066;54;20954;-67
2024/01/24 01:55:13;;;;;;;3.87;1.00;;;14.80;71.20;;;;;;2493929;54;21507;-67
2024/01/24 01:57:42;;;;;;;3.92;0.90;;;14.90;71.40;;;;;;2494693;54;21027;-67
2024/01/24 02:00:10;;;;;;;4.07;1.05;;;14.90;71.40;;;;;;2262651;55;20924;-67
2024/01/24 02:02:38;;;;;;;4.85;0.90;;;14.90;71.60;;;;;;2489721;54;21539;-67
2024/01/24 02:05:05;;;;;;;2.92;0.70;;;14.90;71.30;;;;;;2493582;54;20962;-68
2024/01/24 02:07:32;;;;;;;4.12;0.88;;;15.00;71.40;;;;;;2264312;55;20975;-67
2024/01/24 02:09:59;;;;;;;4.78;0.95;;;15.00;71.30;;;;;;2264830;55;21579;-66
2024/01/24 02:12:25;;;;;;;4.40;0.93;;;15.00;71.10;;;;;;2264620;55;20927;-66
2024/01/24 02:14:51;;;;;;;3.45;0.90;;;15.10;71.40;;;;;;2265015;55;20942;-67
2024/01/24 02:17:18;;;;;;;5.07;1.10;;;15.10;71.40;;;;;;2264259;55;21390;-66
2024/01/24 02:19:44;;;;;;;4.30;0.90;;;15.10;71.40;;;;;;2264589;55;21018;-67
2024/01/24 02:22:11;;;;;;;3.62;0.73;;;15.20;71.40;;;;;;2494044;54;21105;-68
2024/01/24 02:24:40;;;;;;;3.72;0.70;;;15.20;71.50;;;;;;2493977;54;21515;-68
2024/01/24 02:27:08;;;;;;;3.37;0.80;;;15.20;71.50;;;;;;2493210;54;21780;-67
2024/01/24 02:29:34;;;;;;;4.05;0.80;;;15.20;71.40;;;;;;2265045;55;20934;-66
2024/01/24 02:32:01;;;;;;;4.20;0.85;;;15.20;71.30;;;;;;2494484;54;20975;-67
2024/01/24 02:34:27;;;;;;;4.82;1.00;;;15.30;71.30;;;;;;2258417;56;21776;-66
2024/01/24 02:36:54;;;;;;;3.22;0.80;;;15.30;71.30;;;;;;2264776;55;21836;-68
2024/01/24 02:39:21;;;;;;;2.83;0.77;;;15.30;71.30;;;;;;2264763;55;21014;-66
2024/01/24 02:41:47;;;;;;;6.00;0.98;;;15.30;71.30;;;;;;2264810;55;20974;-68
2024/01/24 02:44:14;;;;;;;5.15;1.05;;;15.30;71.00;;;;;;2494001;54;21559;-67
2024/01/24 02:46:41;;;;;;;4.87;0.75;;;15.30;71.20;;;;;;2265271;55;20954;-68
2024/01/24 02:49:07;;;;;;;3.90;0.77;;;15.30;71.10;;;;;;2265557;55;20962;-67
2024/01/24 02:51:34;;;;;;;2.22;0.70;;;15.30;71.30;;;;;;2492773;54;21022;-67
2024/01/24 02:54:01;;;;;;;8.30;1.55;;;15.40;71.20;;;;;;2263893;55;20966;-68
2024/01/24 02:56:27;;;;;;;2.72;0.73;;;15.30;71.30;;;;;;2455987;55;20977;-68
2024/01/24 02:58:53;;;;;;;1.87;0.70;;;15.40;71.40;;;;;;2265361;55;20955;-66
2024/01/24 03:01:22;;;;;;;3.20;0.70;;;15.40;71.30;;;;;;2494111;54;20980;-67
2024/01/24 03:03:49;;;;;;;4.60;0.85;;;15.40;71.20;;;;;;2494155;54;20962;-67
2024/01/24 03:06:15;;;;;;;4.37;1.00;;;15.40;71.30;;;;;;2265105;55;20927;-67
2024/01/24 03:08:51;;;;;;;4.68;1.10;;;15.40;71.30;;;;;;2265057;55;20939;-66
2024/01/24 03:11:20;;;;;;;2.30;0.80;;;15.40;70.40;;;;;;2485832;54;21484;-69
2024/01/24 03:13:47;;;;;;;3.75;0.90;;;15.40;71.30;;;;;;2489650;54;20990;-68
2024/01/24 03:16:13;;;;;;;2.92;0.77;;;15.40;71.40;;;;;;2494349;54;20959;-66
2024/01/24 03:18:39;;;;;;;2.90;0.80;;;15.40;71.40;;;;;;2264973;55;21643;-68
2024/01/24 03:21:07;;;;;;;4.28;0.70;;;15.40;71.40;;;;;;2484238;54;20956;-67
2024/01/24 03:23:33;;;;;;;3.28;0.90;;;15.40;71.40;;;;;;2491572;54;20963;-68
2024/01/24 03:26:03;;;;;;;3.70;0.73;;;15.40;71.40;;;;;;2494044;54;21760;-67
2024/01/24 03:28:29;;;;;;;4.20;1.02;;;15.40;71.50;;;;;;2485165;54;21597;-66
2024/01/24 03:30:55;;;;;;;5.37;0.90;;;15.40;71.60;;;;;;2490409;54;20990;-67
2024/01/24 03:33:22;;;;;;;3.28;0.90;;;15.40;71.50;;;;;;2264539;55;20938;-67
2024/01/24 03:35:48;;;;;;;4.87;0.90;;;15.40;72.40;;;;;;2265012;55;20954;-67
2024/01/24 03:38:15;;;;;;;2.28;0.70;;;15.40;71.90;;;;;;2264461;55;21042;-67
2024/01/24 03:40:42;;;;;;;3.37;0.90;;;15.40;71.90;;;;;;2264367;55;20955;-67
2024/01/24 03:43:10;;;;;;;3.40;0.70;;;15.40;72.10;;;;;;2264567;55;21789;-67
2024/01/24 03:45:37;;;;;;;2.47;0.70;;;15.50;72.20;;;;;;2494404;54;21885;-66
2024/01/24 03:48:04;;;;;;;4.53;0.90;;;15.50;72.20;;;;;;2264743;55;21018;-66
2024/01/24 03:50:31;;;;;;;3.90;0.85;;;15.50;72.10;;;;;;2264381;55;21376;-68
2024/01/24 03:52:57;;;;;;;3.65;1.25;;;15.50;72.00;;;;;;2494405;54;20966;-67
2024/01/24 03:55:23;;;;;;;3.10;0.73;;;15.50;72.20;;;;;;2493984;54;20939;-67
2024/01/24 03:57:50;;;;;;;3.67;1.00;;;15.50;72.20;;;;;;2264873;55;21025;-67
2024/01/24 04:00:19;;;;;;;4.40;1.17;;;15.60;72.30;;;;;;2257746;55;20950;-68
2024/01/24 04:02:46;;;;;;;5.28;1.25;;;15.60;72.40;;;;;;2264798;55;20970;-68
2024/01/24 04:05:12;;;;;;;6.15;1.50;;;15.60;72.40;;;;;;2494397;54;21274;-66
2024/01/24 04:07:39;;;;;;;2.72;0.70;;;15.60;72.50;;;;;;2264841;55;21002;-65
2024/01/24 04:10:06;;;;;;;2.37;0.82;;;15.60;72.40;;;;;;2260229;55;21024;-66
2024/01/24 04:12:32;;;;;;;4.05;0.80;;;15.60;72.60;;;;;;2261589;55;20970;-68
2024/01/24 04:14:59;;;;;;;2.97;0.80;;;15.70;72.70;;;;;;2264710;55;21492;-66
2024/01/24 04:17:25;;;;;;;3.08;0.80;;;15.70;72.60;;;;;;2264358;55;21023;-66
2024/01/24 04:19:52;;;;;;;4.45;1.05;;;15.70;72.60;;;;;;2493092;54;20966;-67
2024/01/24 04:22:21;;;;;;;2.92;0.62;;;15.70;72.60;;;;;;2264751;55;20935;-68
2024/01/24 04:24:48;;;;;;;2.60;0.70;;;15.80;72.40;;;;;;2264604;55;21022;-67
2024/01/24 04:27:15;;;;;;;4.43;0.93;;;15.80;72.60;;;;;;2264446;55;21195;-67
2024/01/24 04:29:43;;;;;;;3.72;0.70;;;15.80;72.60;;;;;;2264898;55;20982;-67
2024/01/24 04:32:11;;;;;;;3.50;0.60;;;15.80;73.30;;;;;;2264620;55;21022;-66
2024/01/24 04:34:38;;;;;;;4.72;1.00;;;15.80;72.60;;;;;;2264565;55;21467;-67
2024/01/24 04:37:05;;;;;;;4.43;0.80;;;15.80;72.60;;;;;;2265123;55;20975;-67
2024/01/24 04:39:31;;;;;;;2.25;0.70;;;15.80;72.70;;;;;;2264239;55;20975;-67
2024/01/24 04:41:58;;;;;;;4.30;0.82;;;15.90;72.80;;;;;;2264912;55;21026;-68
2024/01/24 04:44:25;;;;;;;2.60;1.00;;;15.80;72.60;;;;;;2264689;55;21434;-66
2024/01/24 04:46:51;;;;;;;4.20;0.80;;;15.80;72.70;;;;;;2494432;54;21042;-68
2024/01/24 04:49:17;;;;;;;2.67;0.62;;;15.80;72.80;;;;;;2493637;54;21498;-67
2024/01/24 04:51:48;;;;;;;2.00;0.60;;;15.80;72.80;;;;;;2264121;55;20958;-68
2024/01/24 04:54:15;;;;;;;3.22;0.77;;;15.90;72.60;;;;;;2264793;55;20975;-68
2024/01/24 04:56:45;;;;;;;1.67;0.55;;;15.90;72.80;;;;;;2494811;54;21065;-68
2024/01/24 04:59:15;;;;;;;2.92;0.70;;;15.90;72.60;;;;;;2473181;55;20970;-68
2024/01/24 05:01:44;;;;;;;2.67;0.80;;;15.90;72.80;;;;;;2264666;55;20978;-66
2024/01/24 05:04:11;;;;;;;4.22;1.10;;;15.90;72.90;;;;;;2489443;54;21236;-68
2024/01/24 05:06:37;;;;;;;4.45;1.17;;;15.90;73.10;;;;;;2258644;55;20951;-68
2024/01/24 05:09:07;;;;;;;3.65;1.10;;;15.90;73.30;;;;;;2264815;55;20911;-68
2024/01/24 05:11:34;;;;;;;4.20;1.95;;;15.90;73.20;;;;;;2264698;55;20978;-67
2024/01/24 05:14:01;;;;;;;3.95;1.40;;;16.00;73.30;;;;;;2494098;54;20963;-69
2024/01/24 05:16:29;;;;;;;4.50;1.37;;;16.00;73.40;;;;;;2267752;55;20978;-66
2024/01/24 05:18:55;;;;;;;4.28;1.10;;;16.00;73.30;;;;;;2254654;56;20942;-67
2024/01/24 05:21:22;;;;;;;3.15;1.10;;;16.00;73.40;;;;;;2493891;54;20953;-68
2024/01/24 05:23:48;;;;;;;3.40;1.20;;;16.00;73.30;;;;;;2265131;55;20942;-67
2024/01/24 05:26:15;;;;;;;2.30;0.82;;;16.00;73.20;;;;;;2494777;54;20975;-68
2024/01/24 05:28:42;;;;;;;3.33;1.10;;;16.10;73.40;;;;;;2494530;54;21015;-67
2024/01/24 05:31:09;;;;;;;3.58;1.02;;;16.10;73.10;;;;;;2482709;54;21432;-68
2024/01/24 05:33:35;;;;;;;3.45;1.10;;;16.10;73.30;;;;;;2257159;55;21463;-67
2024/01/24 05:36:02;;;;;;;3.55;1.05;;;16.10;73.10;;;;;;2266630;55;21404;-66
2024/01/24 05:38:29;;;;;;;3.22;0.93;;;16.10;72.70;;;;;;2254891;56;20970;-68
2024/01/24 05:40:56;;;;;;;2.92;0.80;;;16.10;72.50;;;;;;2493943;54;20963;-68
2024/01/24 05:43:23;;;;;;;2.80;0.85;;;16.10;72.60;;;;;;2264646;55;21008;-68
2024/01/24 05:45:51;;;;;;;4.20;0.98;;;16.10;72.80;;;;;;2493567;54;21006;-67
2024/01/24 05:48:18;;;;;;;3.37;0.80;;;16.10;72.70;;;;;;2264051;55;20954;-67
2024/01/24 05:50:45;;;;;;;3.58;0.62;;;16.10;72.70;;;;;;2257593;56;21013;-67
2024/01/24 05:53:12;;;;;;;4.47;1.23;;;16.10;72.90;;;;;;2265071;55;21139;-67
2024/01/24 05:55:39;;;;;;;3.28;0.80;;;16.10;73.00;;;;;;2493334;54;20966;-67
2024/01/24 05:58:07;;;;;;;2.87;0.73;;;16.10;72.70;;;;;;2483713;54;20996;-68
2024/01/24 06:00:33;;;;;;;2.60;0.93;;;16.10;72.60;;;;;;2489099;54;21735;-67
2024/01/24 06:03:00;;;;;;;1.77;0.73;;;16.20;73.00;;;;;;2494075;54;20946;-68
2024/01/24 06:05:26;;;;;;;1.02;0.52;;;16.20;73.10;;;;;;2264201;55;20965;-68
2024/01/24 06:07:53;;;;;;;1.95;0.73;;;16.20;73.20;;;;;;2264377;55;21388;-67
2024/01/24 06:10:20;;;;;;;2.62;0.70;;;16.20;73.10;;;;;;2263912;55;21500;-67
2024/01/24 06:12:47;;;;;;;2.53;0.57;;;16.20;73.10;;;;;;2258597;56;20976;-68
2024/01/24 06:15:13;;;;;;;2.20;0.60;;;16.20;73.30;;;;;;2493999;54;21254;-67
2024/01/24 06:17:40;;;;;;;2.58;0.70;;;16.20;73.10;;;;;;2263802;55;20996;-68
2024/01/24 06:20:08;;;;;;;3.00;0.73;;;16.20;73.10;;;;;;2257957;55;21053;-67
2024/01/24 06:22:39;;;;;;;1.92;0.60;;;16.20;73.10;;;;;;2263787;55;20942;-67
2024/01/24 06:25:07;;;;;;;1.62;0.60;;;16.20;73.20;;;;;;2263863;55;21069;-68
2024/01/24 06:27:35;;;;;;;2.60;0.70;;;16.20;73.20;;;;;;2493125;54;21290;-67
2024/01/24 06:30:01;;;;;;;2.85;0.70;;;16.20;73.30;;;;;;2264295;55;20967;-67
2024/01/24 06:32:27;;;;;;;3.20;0.77;;;16.20;73.20;;;;;;2264259;55;21014;-67
2024/01/24 06:34:54;;;;;;;2.95;0.70;;;16.30;73.20;;;;;;2264068;55;20963;-68
2024/01/24 06:37:21;;;;;;;1.85;0.70;;;16.30;73.20;;;;;;2493428;54;20987;-67
2024/01/24 06:39:47;;;;;;;2.95;1.00;;;16.30;73.40;;;;;;2493973;54;20973;-67
2024/01/24 06:42:14;;;;;;;2.45;0.70;;;16.40;73.30;;;;;;2264529;55;20919;-68
2024/01/24 06:44:40;;;;;;;1.42;0.60;;;16.30;73.50;;;;;;2494014;54;20990;-67
2024/01/24 06:47:07;;;;;;;1.65;0.60;;;16.30;73.40;;;;;;2494020;54;21427;-68
2024/01/24 06:49:33;;;;;;;2.53;0.80;;;16.30;73.50;;;;;;2264371;55;20955;-67
2024/01/24 06:52:00;;;;;;;3.95;1.08;;;16.30;73.50;;;;;;2264588;55;20959;-67
2024/01/24 06:54:27;;;;;;;2.10;0.80;;;16.40;73.40;;;;;;2264859;55;21034;-67
2024/01/24 06:56:53;;;;;;;1.92;0.77;;;16.40;73.60;;;;;;2264732;55;20986;-68
2024/01/24 06:59:19;;;;;;;4.62;1.33;;;16.40;73.40;;;;;;2264703;55;21290;-68
2024/01/24 07:01:47;;;;;;;4.70;0.80;;;16.40;73.40;;;;;;2264694;55;20954;-68
2024/01/24 07:04:14;;;;;;;2.33;0.75;;;16.40;73.60;;;;;;2492782;54;20993;-67
2024/01/24 07:06:41;;;;;;;2.97;0.88;;;16.30;73.40;;;;;;2264917;55;21539;-67
2024/01/24 07:09:11;;;;;;;2.80;0.90;;;16.40;73.60;;;;;;2266446;55;20958;-66
2024/01/24 07:11:44;;;;;;;2.80;1.08;;;16.40;73.20;;;;;;2494161;54;20986;-67
2024/01/24 07:14:12;;;;;;;3.58;0.90;;;16.50;73.30;;;;;;2494433;54;20986;-67
2024/01/24 07:16:39;;;;;;;3.10;1.20;;;16.50;73.20;;;;;;2264841;55;20950;-66
2024/01/24 07:19:06;;;;;;;4.03;1.58;;;16.50;73.30;;;;;;2263959;55;21167;-67
2024/01/24 07:21:32;;;;;;;4.32;1.20;;;16.50;73.00;;;;;;2485511;54;21013;-67
2024/01/24 07:23:58;;;;;;;4.32;1.45;;;16.40;72.50;;;;;;2254554;55;20990;-67
2024/01/24 07:26:25;;;;;;;3.20;1.27;;;16.40;72.40;;;;;;2265062;55;20963;-68
2024/01/24 07:28:52;;;;;;;3.75;1.25;;;16.40;72.40;;;;;;2493116;54;20963;-68
2024/01/24 07:31:19;;;;;;;4.90;1.27;;;16.40;72.40;;;;;;2493826;54;21476;-67
2024/01/24 07:33:45;;;;;;;3.50;1.10;;;16.40;72.60;;;;;;2264816;55;21083;-66
2024/01/24 07:36:11;;;;;;;6.28;1.30;;;16.40;72.80;;;;;;2264422;55;21760;-67
2024/01/24 07:38:39;;;;;;;3.67;1.05;;;16.30;72.80;;;;;;2494164;54;20943;-68
2024/01/24 07:41:07;;;;;;;3.17;0.90;;;16.30;72.80;;;;;;2264546;55;20947;-68
2024/01/24 07:43:34;;;;;;;4.80;0.90;;;16.40;72.90;;;;;;2493005;54;21031;-67
2024/01/24 07:46:01;;;;;;;4.53;1.40;;;16.30;72.60;;;;;;2264379;55;21118;-67
2024/01/24 07:48:27;;;;;;;6.78;1.35;;;16.20;72.70;;;;;;2264871;55;20978;-68
2024/01/24 07:50:55;;;;;;;5.03;1.42;;;16.20;72.80;;;;;;2493881;54;20962;-68
2024/01/24 07:53:23;;;;;;;4.93;1.40;;;16.20;72.80;;;;;;2487402;54;20993;-67
2024/01/24 07:55:49;;;;;;;5.70;1.55;;;16.20;73.00;;;;;;2488140;54;21014;-67
2024/01/24 07:58:17;;;;;;;4.57;1.00;;;16.20;72.80;;;;;;2264860;55;20951;-68
2024/01/24 08:00:43;;;;;;;1.62;0.50;;;16.20;72.90;;;;;;2493526;54;21380;-68
2024/01/24 08:03:09;;;;;;;1.48;0.50;;;16.10;72.90;;;;;;2264840;55;21431;-66
2024/01/24 08:05:36;;;;;;;1.73;0.62;;;16.10;73.10;;;;;;2264811;55;20922;-67
2024/01/24 08:08:03;;;;;;;1.58;0.43;;;16.10;73.10;;;;;;2264452;55;20986;-67
2024/01/24 08:10:30;;;;;;;1.48;0.55;;;16.10;73.10;;;;;;2494219;54;21027;-66
2024/01/24 08:12:57;;;;;;;2.03;0.52;;;16.00;73.20;;;;;;2264483;55;21958;-66
2024/01/24 08:15:26;;;;;;;1.80;0.52;;;16.00;73.40;;;;;;2494009;54;20955;-68
2024/01/24 08:17:52;;;;;;;1.52;0.50;;;16.00;73.30;;;;;;2264659;55;21531;-67
2024/01/24 08:20:19;;;;;;;1.40;0.50;;;16.00;73.40;;;;;;2493865;54;21775;-67
2024/01/24 08:22:46;;;;;;;2.35;0.60;;;16.00;73.50;;;;;;2264525;55;20939;-67
2024/01/24 08:25:12;;;;;;;2.37;0.60;;;16.00;73.70;;;;;;2264307;55;21010;-68
2024/01/24 08:27:39;;;;;;;2.10;0.50;;;16.00;73.70;;;;;;2264120;55;20946;-68
2024/01/24 08:30:06;;;;;;;1.48;0.50;;;16.00;73.70;;;;;;2264410;55;20975;-68
2024/01/24 08:32:33;;;;;;;2.15;0.47;;;16.00;73.80;;;;;;2264963;55;20954;-67
2024/01/24 08:34:59;;;;;;;0.95;0.40;;;16.00;74.00;;;;;;2494221;54;21515;-68
2024/01/24 08:37:26;;;;;;;0.85;0.35;;;16.00;74.00;;;;;;2264780;55;21026;-67
2024/01/24 08:39:52;;;;;;;1.10;0.30;;;16.00;74.20;;;;;;2265502;55;20985;-69
2024/01/24 08:42:19;;;;;;;1.83;0.47;;;16.00;74.10;;;;;;2256722;55;21054;-67
2024/01/24 08:44:47;;;;;;;2.20;0.50;;;16.00;74.10;;;;;;2265053;55;20970;-68
2024/01/24 08:47:13;;;;;;;0.95;0.40;;;16.00;74.00;;;;;;2265127;55;20958;-68
2024/01/24 08:49:41;;;;;;;0.50;0.30;;;16.00;74.00;;;;;;2264758;55;20990;-68
2024/01/24 08:52:11;;;;;;;1.08;0.40;;;16.00;74.00;;;;;;2494765;54;20923;-67
2024/01/24 08:54:38;;;;;;;1.17;0.37;;;16.00;74.10;;;;;;2264825;55;21628;-67
2024/01/24 08:57:06;;;;;;;1.75;0.45;;;16.00;74.00;;;;;;2494479;54;20970;-66
2024/01/24 08:59:33;;;;;;;1.67;0.50;;;16.00;74.10;;;;;;2264497;55;21542;-68
2024/01/24 09:02:01;;;;;;;1.95;0.35;;;16.00;74.20;;;;;;2264207;55;20935;-67
2024/01/24 09:04:27;;;;;;;2.05;0.57;;;16.00;74.20;;;;;;2265121;55;20974;-68
2024/01/24 09:06:54;;;;;;;1.15;0.50;;;16.00;74.50;;;;;;2494451;54;20950;-67
2024/01/24 09:09:22;;;;;;;1.23;0.50;;;16.10;74.20;;;;;;2494510;54;21518;-66
2024/01/24 09:11:49;;;;;;;2.83;0.50;;;16.10;74.10;;;;;;2264969;55;20946;-68
2024/01/24 09:14:19;;;;;;;1.48;0.35;;;16.10;74.10;;;;;;2264974;55;20970;-68
2024/01/24 09:16:46;;;;;;;1.05;0.45;;;16.10;74.20;;;;;;2266081;55;20918;-68
2024/01/24 09:19:15;;;;;;;1.75;0.57;;;16.10;74.20;;;;;;2495521;54;20978;-68
2024/01/24 09:21:41;;;;;;;1.87;0.60;;;16.10;74.20;;;;;;2259147;56;21041;-69
2024/01/24 09:24:08;;;;;;;2.15;0.50;;;16.10;74.20;;;;;;2265239;55;21054;-67
2024/01/24 09:26:37;;;;;;;1.60;0.45;;;16.20;74.40;;;;;;2267886;55;20978;-67
2024/01/24 09:29:03;;;;;;;0.80;0.30;;;16.20;74.50;;;;;;2256520;56;21800;-67
2024/01/24 09:31:32;;;;;;;1.80;0.52;;;16.20;74.60;;;;;;2262726;55;20937;-68
2024/01/24 09:33:58;;;;;;;1.00;0.47;;;16.20;74.60;;;;;;2490897;54;20967;-68
2024/01/24 09:36:27;;;;;;;1.33;0.40;;;16.20;74.60;;;;;;2265754;55;21034;-69
2024/01/24 09:38:56;;;;;;;0.85;0.40;;;16.20;74.60;;;;;;2266434;55;21055;-67
2024/01/24 09:41:23;;;;;;;1.15;0.40;;;16.30;74.70;;;;;;2269962;55;20950;-69
2024/01/24 09:43:51;;;;;;;1.70;0.50;;;16.30;74.50;;;;;;2265228;55;21488;-68
2024/01/24 09:46:19;;;;;;;1.92;0.50;;;16.30;74.60;;;;;;2265798;55;20963;-66
2024/01/24 09:48:46;;;;;;;5.10;0.80;;;16.20;74.50;;;;;;2495181;54;20954;-68
2024/01/24 09:51:14;;;;;;;1.67;0.60;;;16.30;74.40;;;;;;2495359;54;21110;-67
2024/01/24 09:53:45;;;;;;;2.78;0.70;;;16.40;74.80;;;;;;2495964;54;20947;-68
2024/01/24 09:56:15;;;;;;;1.55;0.60;;;16.40;74.50;;;;;;2265619;55;20946;-68
2024/01/24 09:58:42;;;;;;;2.28;0.60;;;16.40;74.70;;;;;;2482994;54;20999;-69
2024/01/24 10:01:20;;;;;;;1.25;0.50;;;16.40;74.60;;;;;;2265533;55;21077;-70
2024/01/24 10:04:00;;;;;;;1.92;0.60;;;16.40;74.00;;;;;;2496222;54;21015;-67
2024/01/24 10:06:27;;;;;;;1.65;0.52;;;16.40;74.00;;;;;;2266090;55;21010;-67
2024/01/24 10:08:57;;;;;;;2.45;0.60;;;16.40;74.40;;;;;;2266075;56;21271;-68
2024/01/24 10:11:26;;;;;;;1.77;0.50;;;16.50;74.40;;;;;;2258163;56;21058;-68
2024/01/24 10:13:59;;;;;;;2.42;0.50;;;16.50;74.50;;;;;;2266040;55;21004;-69
2024/01/24 10:16:25;;;;;;;;;;;16.50;74.30;;;;;;2268662;55;21010;-67
2024/01/24 10:18:53;;;;;;;1.40;0.40;;;16.60;72.50;;;;;;2265618;55;20082;-67
2024/01/24 10:21:20;;;;;;;1.08;0.43;;;16.50;74.40;;;;;;2494321;54;20954;-67
2024/01/24 10:23:46;;;;;;;1.25;0.57;;;16.50;74.50;;;;;;2494882;54;20911;-68
2024/01/24 10:26:16;;;;;;;2.33;0.80;;;16.50;74.50;;;;;;2259776;56;21820;-67
2024/01/24 10:28:45;;;;;;;2.75;0.62;;;16.50;74.50;;;;;;2487146;54;21069;-67
2024/01/24 10:31:12;;;;;;;2.30;0.70;;;16.60;74.80;;;;;;2264922;55;21009;-69
2024/01/24 10:33:39;;;;;;;1.87;0.60;;;16.60;74.90;;;;;;2264771;55;21019;-68
2024/01/24 10:36:06;;;;;;;2.97;0.90;;;16.60;74.80;;;;;;2264868;55;21010;-67
2024/01/24 10:38:33;;;;;;;2.00;0.70;;;16.60;74.70;;;;;;2263637;55;20984;-67
2024/01/24 10:41:00;;;;;;;2.58;0.88;;;16.60;74.80;;;;;;2470865;54;20969;-68
2024/01/24 10:43:27;;;;;;;3.42;1.00;;;16.60;74.80;;;;;;2484835;54;20954;-67
2024/01/24 10:45:56;;;;;;;3.28;1.15;;;16.60;74.80;;;;;;2494697;54;21711;-68
2024/01/24 10:48:22;;;;;;;2.30;0.77;;;16.70;74.90;;;;;;2495109;54;20946;-66
2024/01/24 10:50:48;;;;;;;2.42;0.73;;;16.70;74.90;;;;;;2267214;55;20967;-69
2024/01/24 10:53:15;;;;;;;2.03;0.73;;;16.70;74.60;;;;;;2264832;55;20910;-66
2024/01/24 10:55:44;;;;;;;1.30;0.50;;;16.70;74.60;;;;;;2264753;55;20938;-67
2024/01/24 10:58:11;;;;;;;1.40;0.40;;;16.80;74.80;;;;;;2265284;55;21817;-67
2024/01/24 11:00:39;;;;;;;1.95;0.65;;;16.80;74.90;;;;;;2494906;54;21030;-67
2024/01/24 11:03:07;;;;;;;2.78;1.02;;;16.80;74.90;;;;;;2264845;55;20919;-67
2024/01/24 11:05:50;;;;;;;1.87;0.85;;;16.80;74.60;;;;;;2265022;55;20971;-69
2024/01/24 11:08:48;;;;;;;2.33;0.80;;;16.80;74.60;;;;;;2264806;55;21074;-68
2024/01/24 11:11:17;;;;;;;1.20;0.50;;;16.80;73.80;;;;;;2265869;55;21821;-69
2024/01/24 11:13:46;;;;;;;1.08;0.45;;;16.80;74.70;;;;;;2267815;55;21034;-67
2024/01/24 11:16:37;;;;;;;1.50;0.43;;;16.90;74.80;;;;;;2265569;55;20978;-66
2024/01/24 11:19:23;;;;;;;1.02;0.40;;;16.90;73.80;;;;;;2489356;54;21026;-68
2024/01/24 11:21:50;;;;;;;1.73;0.57;;;16.90;74.00;;;;;;2267697;55;20972;-68
2024/01/24 11:24:46;;;;;;;1.20;0.50;;;16.90;74.70;;;;;;2264874;55;20984;-69
2024/01/24 11:27:44;;;;;;;1.42;0.50;;;16.90;73.60;;;;;;2494939;54;20921;-69
2024/01/24 11:30:36;;;;;;;2.03;0.60;;;17.00;73.60;;;;;;2265475;55;21411;-69
2024/01/24 11:33:02;;;;;;;0.70;0.30;;;16.90;74.40;;;;;;2265325;55;21014;-68
2024/01/24 11:35:41;;;;;;;1.58;0.60;;;16.90;74.70;;;;;;2265375;55;21496;-67
2024/01/24 11:39:26;;;;;;;1.25;0.32;;;16.90;74.00;;;;;;2265479;55;20967;-70
2024/01/24 11:41:54;;;;;;;1.40;0.37;;;16.90;73.10;;;;;;2265439;55;20950;-68
2024/01/24 11:44:24;;;;;;;1.00;0.32;;;16.90;74.60;;;;;;2494637;54;21037;-68
2024/01/24 11:46:50;;;;;;;1.83;0.43;;;16.90;74.30;;;;;;2495076;54;20935;-67
2024/01/24 11:49:20;;;;;;;1.05;0.30;;;16.90;74.40;;;;;;2494316;54;21018;-67
2024/01/24 11:52:03;;;;;;;4.13;0.40;;;16.90;74.60;;;;;;2493959;53;21038;-68
2024/01/24 11:54:32;;;;;;;1.60;0.52;;;16.90;74.00;;;;;;2494389;54;21156;-69
2024/01/24 11:56:59;;;;;;;0.45;0.20;;;16.90;74.50;;;;;;2264498;55;21029;-67
2024/01/24 11:59:26;;;;;;;1.25;0.50;;;16.90;74.70;;;;;;2260484;56;20932;-67
2024/01/24 12:01:53;;;;;;;1.55;0.22;;;16.90;74.80;;;;;;2265724;55;21073;-67
2024/01/24 12:04:22;;;;;;;1.45;0.50;;;16.90;74.80;;;;;;2493995;54;20918;-67
2024/01/24 12:06:49;;;;;;;1.77;0.50;;;16.90;74.70;;;;;;2493021;54;21283;-68
2024/01/24 12:09:19;;;;;;;1.23;0.50;;;16.90;74.80;;;;;;2493721;54;21514;-67
2024/01/24 12:11:47;;;;;;;1.30;0.50;;;16.90;74.60;;;;;;2264293;55;20947;-67
2024/01/24 12:14:13;;;;;;;1.15;0.50;;;16.90;74.80;;;;;;2264607;55;20962;-68
2024/01/24 12:16:40;;;;;;;1.83;0.60;;;16.90;74.60;;;;;;2257827;55;21028;-68
2024/01/24 12:19:07;;;;;;;1.62;0.60;;;16.90;74.50;;;;;;2264362;55;20980;-68
2024/01/24 12:21:34;;;;;;;1.70;0.70;;;16.90;74.50;;;;;;2493527;54;20915;-67
2024/01/24 12:24:00;;;;;;;2.40;0.90;;;16.90;74.60;;;;;;2494247;54;20943;-67
2024/01/24 12:26:31;;;;;;;3.80;1.30;;;16.90;74.70;;;;;;2264601;55;21425;-69
2024/01/24 12:28:57;;;;;;;3.05;1.30;;;16.90;74.40;;;;;;2495021;54;20942;-68
2024/01/24 12:31:29;;;;;;;1.52;0.60;;;16.90;74.70;;;;;;2265348;55;20931;-68
2024/01/24 12:33:56;;;;;;;2.40;0.65;;;16.90;74.60;;;;;;2494279;54;20961;-68
2024/01/24 12:36:23;;;;;;;1.20;0.50;;;16.90;74.70;;;;;;2493723;54;21372;-68
2024/01/24 12:38:54;;;;;;;1.62;0.62;;;16.90;74.90;;;;;;2494990;54;21054;-68
2024/01/24 12:41:23;;;;;;;2.42;0.80;;;16.90;74.80;;;;;;2493953;54;20998;-67
2024/01/24 12:43:57;;;;;;;1.20;0.50;;;16.90;74.80;;;;;;2265304;55;20931;-68
2024/01/24 12:46:25;;;;;;;1.45;0.60;;;16.80;74.80;;;;;;2491920;54;21041;-69
2024/01/24 12:48:53;;;;;;;3.67;1.17;;;17.00;75.20;;;;;;2484209;54;20971;-69
2024/01/24 12:51:19;;;;;;;3.58;1.20;;;17.10;75.10;;;;;;2264869;55;20967;-68